createdAt,value
2019-04-26T00:00:34.286Z,9.83
2019-04-26T00:03:07.775Z,7.70
2019-04-26T00:05:38.319Z,9.17
2019-04-26T00:08:10.862Z,8.40
2019-04-26T00:10:53.808Z,9.87
2019-04-26T00:13:37.007Z,8.80
2019-04-26T00:16:37.926Z,9.83
2019-04-26T00:19:07.753Z,9.73
2019-04-26T00:21:37.785Z,9.13
2019-04-26T00:24:07.775Z,9.67
2019-04-26T00:26:38.830Z,9.27
2019-04-26T00:29:08.415Z,9.47
2019-04-26T00:31:38.165Z,8.60
2019-04-26T00:34:08.054Z,10.30
2019-04-26T00:36:37.463Z,9.53
2019-04-26T00:39:07.930Z,9.83
2019-04-26T00:41:38.465Z,9.50
2019-04-26T00:44:08.061Z,10.93
2019-04-26T00:46:38.706Z,11.03
2019-04-26T00:49:10.090Z,10.67
2019-04-26T00:51:40.191Z,10.63
2019-04-26T00:54:10.263Z,10.13
2019-04-26T00:56:40.187Z,10.30
2019-04-26T00:59:10.553Z,11.10
2019-04-26T01:01:43.089Z,9.73
2019-04-26T01:04:12.626Z,9.63
2019-04-26T01:06:44.063Z,9.70
2019-04-26T01:09:13.588Z,10.07
2019-04-26T01:11:43.123Z,8.93
2019-04-26T01:14:12.794Z,9.30
2019-04-26T01:16:42.580Z,9.37
2019-04-26T01:19:13.152Z,8.00
2019-04-26T01:21:47.004Z,10.63
2019-04-26T01:24:19.316Z,10.43
2019-04-26T01:26:50.447Z,8.40
2019-04-26T01:29:21.799Z,9.90
2019-04-26T01:31:59.976Z,7.83
2019-04-26T01:34:30.476Z,8.73
2019-04-26T01:37:00.694Z,9.10
2019-04-26T01:39:30.476Z,10.50
2019-04-26T01:42:10.965Z,10.50
2019-04-26T01:44:49.404Z,10.47
2019-04-26T01:47:20.044Z,9.87
2019-04-26T01:49:51.128Z,10.67
2019-04-26T01:52:22.404Z,13.43
2019-04-26T01:54:51.981Z,11.50
2019-04-26T01:57:23.623Z,13.77
2019-04-26T01:59:57.444Z,11.10
2019-04-26T02:02:46.127Z,9.77
2019-04-26T02:05:22.393Z,10.70
2019-04-26T02:07:52.538Z,11.03
2019-04-26T02:10:25.187Z,12.50
2019-04-26T02:12:56.533Z,12.77
2019-04-26T02:15:29.184Z,12.70
2019-04-26T02:17:59.820Z,11.90
2019-04-26T02:21:15.433Z,11.97
2019-04-26T02:23:54.430Z,12.43
2019-04-26T02:26:52.291Z,12.47
2019-04-26T02:29:27.165Z,12.50
2019-04-26T02:32:02.148Z,12.15
2019-04-26T02:34:35.262Z,12.73
2019-04-26T02:37:06.560Z,13.57
2019-04-26T02:39:39.824Z,14.40
2019-04-26T02:42:22.217Z,12.70
2019-04-26T02:45:11.326Z,14.43
2019-04-26T02:47:52.064Z,13.07
2019-04-26T02:50:32.775Z,16.03
2019-04-26T02:53:44.570Z,16.40
2019-04-26T02:56:30.408Z,16.37
2019-04-26T02:59:23.011Z,15.30
2019-04-26T03:01:54.368Z,15.00
2019-04-26T03:04:25.588Z,14.27
2019-04-26T03:07:03.523Z,13.70
2019-04-26T03:09:31.962Z,14.10
2019-04-26T03:12:06.641Z,12.40
2019-04-26T03:15:13.574Z,11.10
2019-04-26T03:17:54.818Z,12.15
2019-04-26T03:20:34.357Z,11.03
2019-04-26T03:23:45.799Z,13.43
2019-04-26T03:26:13.906Z,10.73
2019-04-26T03:29:13.737Z,12.17
2019-04-26T03:31:56.342Z,11.27
2019-04-26T03:34:45.488Z,12.07
2019-04-26T03:38:01.696Z,13.80
2019-04-26T03:40:59.788Z,14.43
2019-04-26T03:43:55.652Z,12.23
2019-04-26T03:46:45.367Z,11.75
2019-04-26T03:49:54.786Z,11.93
2019-04-26T03:52:41.546Z,12.75
2019-04-26T03:56:03.897Z,11.70
2019-04-26T03:59:03.237Z,11.73
2019-04-26T04:01:37.395Z,13.80
2019-04-26T04:04:27.073Z,12.47
2019-04-26T04:07:04.605Z,13.07
2019-04-26T04:09:30.128Z,13.30
2019-04-26T04:12:12.223Z,13.47
2019-04-26T04:15:05.061Z,12.87
2019-04-26T04:17:50.237Z,14.40
2019-04-26T04:21:01.018Z,12.87
2019-04-26T04:23:50.086Z,14.73
2019-04-26T04:26:26.698Z,13.60
2019-04-26T04:29:42.849Z,14.23
2019-04-26T04:32:13.430Z,13.30
2019-04-26T04:34:47.504Z,12.97
2019-04-26T04:37:18.309Z,13.33
2019-04-26T04:40:37.893Z,11.77
2019-04-26T04:43:32.577Z,14.43
2019-04-26T04:46:35.637Z,11.23
2019-04-26T04:49:21.080Z,13.00
2019-04-26T04:54:36.603Z,11.50
2019-04-26T04:57:31.961Z,11.40
2019-04-26T05:00:33.837Z,11.45
2019-04-26T05:03:27.921Z,10.77
2019-04-26T05:06:25.588Z,11.07
2019-04-26T05:09:12.122Z,12.97
2019-04-26T05:12:09.720Z,11.67
2019-04-26T05:15:02.025Z,10.00
2019-04-26T05:18:04.720Z,11.13
2019-04-26T05:20:42.032Z,10.93
2019-04-26T05:23:55.245Z,10.83
2019-04-26T05:27:02.973Z,10.40
2019-04-26T05:30:21.851Z,9.80
2019-04-26T05:33:16.615Z,10.47
2019-04-26T05:36:19.285Z,10.27
2019-04-26T05:39:17.549Z,9.30
2019-04-26T05:42:20.555Z,12.50
2019-04-26T05:45:29.140Z,10.80
2019-04-26T05:48:30.674Z,11.97
2019-04-26T05:51:49.308Z,11.17
2019-04-26T05:55:33.712Z,11.67
2019-04-26T05:58:34.567Z,11.17
2019-04-26T06:02:07.790Z,10.70
2019-04-26T06:05:08.105Z,12.67
2019-04-26T06:08:08.790Z,11.13
2019-04-26T06:10:59.977Z,11.60
2019-04-26T06:14:19.467Z,10.87
2019-04-26T06:17:27.969Z,10.40
2019-04-26T06:20:23.308Z,16.27
2019-04-26T06:23:30.032Z,10.60
2019-04-26T06:26:30.447Z,9.00
2019-04-26T06:29:13.609Z,7.80
2019-04-26T06:31:55.897Z,8.27
2019-04-26T06:35:02.100Z,7.87
2019-04-26T06:37:50.684Z,9.35
2019-04-26T06:40:58.176Z,8.33
2019-04-26T06:43:34.637Z,7.67
2019-04-26T06:47:08.059Z,8.40
2019-04-26T06:50:12.025Z,7.60
2019-04-26T06:53:14.045Z,7.23
2019-04-26T06:55:55.306Z,8.00
2019-04-26T06:59:11.983Z,7.37
2019-04-26T07:01:59.056Z,7.77
2019-04-26T07:05:10.149Z,8.53
2019-04-26T07:08:18.877Z,9.50
2019-04-26T07:11:32.718Z,8.20
2019-04-26T07:14:12.740Z,8.43
2019-04-26T07:17:06.089Z,7.83
2019-04-26T07:20:04.834Z,9.60
2019-04-26T07:23:16.528Z,7.27
2019-04-26T07:26:42.345Z,5.63
2019-04-26T07:29:40.435Z,7.28
2019-04-26T07:32:37.637Z,6.20
2019-04-26T07:35:24.559Z,6.92
2019-04-26T07:38:46.591Z,9.10
2019-04-26T07:41:56.822Z,8.23
2019-04-26T07:44:54.390Z,7.35
2019-04-26T07:48:15.160Z,8.50
2019-04-26T07:51:30.672Z,7.85
2019-04-26T07:54:30.971Z,8.10
2019-04-26T07:57:41.737Z,8.07
2019-04-26T08:00:27.690Z,8.17
2019-04-26T08:03:10.824Z,10.40
2019-04-26T08:06:09.520Z,10.57
2019-04-26T08:08:51.124Z,7.97
2019-04-26T08:11:23.431Z,8.40
2019-04-26T08:14:08.400Z,8.90
2019-04-26T08:19:21.646Z,9.75
2019-04-26T08:21:52.024Z,7.30
2019-04-26T08:24:24.552Z,8.03
2019-04-26T08:27:18.741Z,7.17
2019-04-26T08:29:43.426Z,10.08
2019-04-26T08:32:21.572Z,8.40
2019-04-26T08:34:57.931Z,7.58
2019-04-26T08:37:37.980Z,7.28
2019-04-26T08:40:09.021Z,11.93
2019-04-26T08:42:45.821Z,9.63
2019-04-26T08:46:01.288Z,9.28
2019-04-26T08:48:32.772Z,8.30
2019-04-26T08:51:05.277Z,10.25
2019-04-26T08:53:35.792Z,9.65
2019-04-26T08:56:06.862Z,8.67
2019-04-26T08:58:39.574Z,7.53
2019-04-26T09:01:33.898Z,9.07
2019-04-26T09:04:29.074Z,9.47
2019-04-26T09:07:09.033Z,10.43
2019-04-26T09:09:40.762Z,10.80
2019-04-26T09:12:23.035Z,8.05
2019-04-26T09:14:51.129Z,9.25
2019-04-26T09:17:20.626Z,8.58
2019-04-26T09:19:50.936Z,8.20
2019-04-26T09:22:48.444Z,8.20
2019-04-26T09:25:39.301Z,10.60
2019-04-26T09:28:31.151Z,8.67
2019-04-26T09:31:19.730Z,9.47
2019-04-26T09:33:56.546Z,9.87
2019-04-26T09:36:26.227Z,8.73
2019-04-26T09:38:55.963Z,7.87
2019-04-26T09:41:26.518Z,8.50
2019-04-26T09:44:01.835Z,7.90
2019-04-26T09:46:52.798Z,9.03
2019-04-26T09:49:33.067Z,8.15
2019-04-26T09:52:03.520Z,7.42
2019-04-26T09:54:33.793Z,8.33
2019-04-26T09:57:03.868Z,8.03
2019-04-26T09:59:36.256Z,9.80
2019-04-26T10:02:06.222Z,8.83
2019-04-26T10:04:36.070Z,11.83
2019-04-26T10:07:06.706Z,9.60
2019-04-26T10:09:36.747Z,8.80
2019-04-26T10:12:14.937Z,7.77
2019-04-26T10:15:13.002Z,8.23
2019-04-26T10:17:42.785Z,9.00
2019-04-26T10:20:13.247Z,9.33
2019-04-26T10:22:43.192Z,8.63
2019-04-26T10:25:16.606Z,11.83
2019-04-26T10:27:45.797Z,9.63
2019-04-26T10:30:17.174Z,11.00
2019-04-26T10:32:46.811Z,10.43
2019-04-26T10:35:17.508Z,9.07
2019-04-26T10:37:49.296Z,9.20
2019-04-26T10:40:19.774Z,9.33
2019-04-26T10:42:49.746Z,10.53
2019-04-26T10:45:19.988Z,8.37
2019-04-26T10:47:49.924Z,7.67
2019-04-26T10:50:19.971Z,9.70
2019-04-26T10:52:59.428Z,8.57
2019-04-26T10:55:50.259Z,10.90
2019-04-26T10:58:55.868Z,10.60
2019-04-26T11:01:26.619Z,12.43
2019-04-26T11:03:56.412Z,8.33
2019-04-26T11:06:27.819Z,10.17
2019-04-26T11:08:58.540Z,9.73
2019-04-26T11:11:28.464Z,8.80
2019-04-26T11:13:58.270Z,10.70
2019-04-26T11:16:28.103Z,11.60
2019-04-26T11:19:01.087Z,9.53
2019-04-26T11:21:31.347Z,10.73
2019-04-26T11:24:00.981Z,9.50
2019-04-26T11:26:30.987Z,10.03
2019-04-26T11:29:02.177Z,9.37
2019-04-26T11:31:32.412Z,10.17
2019-04-26T11:34:05.334Z,12.23
2019-04-26T11:36:33.779Z,12.57
2019-04-26T11:39:07.466Z,11.83
2019-04-26T11:41:39.170Z,9.18
2019-04-26T11:44:08.812Z,9.58
2019-04-26T11:46:44.691Z,9.13
2019-04-26T11:49:09.545Z,10.05
2019-04-26T11:51:39.128Z,10.75
2019-04-26T11:54:08.825Z,9.85
2019-04-26T11:56:38.855Z,9.60
2019-04-26T11:59:08.423Z,9.65
2019-04-26T12:01:40.440Z,10.15
2019-04-26T12:04:31.933Z,9.03
2019-04-26T12:07:10.946Z,9.33
2019-04-26T12:09:42.751Z,9.48
2019-04-26T12:12:13.067Z,10.47
2019-04-26T12:14:44.201Z,11.60
2019-04-26T12:17:13.854Z,10.40
2019-04-26T12:19:43.447Z,10.43
2019-04-26T12:22:13.419Z,10.73
2019-04-26T12:24:43.527Z,11.83
2019-04-26T12:27:13.986Z,11.00
2019-04-26T12:29:47.864Z,11.00
2019-04-26T12:32:17.271Z,12.27
2019-04-26T12:34:47.233Z,10.20
2019-04-26T12:37:20.057Z,9.60
2019-04-26T12:39:49.328Z,10.67
2019-04-26T12:42:19.162Z,11.50
2019-04-26T12:45:07.814Z,12.07
2019-04-26T12:47:48.692Z,11.20
2019-04-26T12:50:20.583Z,12.47
2019-04-26T12:52:51.354Z,11.20
2019-04-26T12:55:21.519Z,11.78
2019-04-26T12:57:50.987Z,10.15
2019-04-26T13:00:28.370Z,9.65
2019-04-26T13:03:00.347Z,9.40
2019-04-26T13:05:30.759Z,9.58
2019-04-26T13:08:00.369Z,9.95
2019-04-26T13:10:44.872Z,8.90
2019-04-26T13:13:34.213Z,10.98
2019-04-26T13:16:26.271Z,9.25
2019-04-26T13:18:56.272Z,9.50
2019-04-26T13:21:26.095Z,9.08
2019-04-26T13:23:56.236Z,10.43
2019-04-26T13:26:25.786Z,14.23
2019-04-26T13:28:57.011Z,9.75
2019-04-26T13:31:31.726Z,9.48
2019-04-26T13:34:02.941Z,10.05
2019-04-26T13:36:31.971Z,12.40
2019-04-26T13:39:01.663Z,11.80
2019-04-26T13:41:34.984Z,10.13
2019-04-26T13:44:05.866Z,10.63
2019-04-26T13:46:57.109Z,12.15
2019-04-26T13:49:37.829Z,9.03
2019-04-26T13:52:07.349Z,10.80
2019-04-26T13:54:38.425Z,10.80
2019-04-26T13:57:11.273Z,8.95
2019-04-26T13:59:41.200Z,12.20
2019-04-26T14:02:12.121Z,11.33
2019-04-26T14:04:42.644Z,10.05
2019-04-26T14:07:12.948Z,15.38
2019-04-26T14:09:42.640Z,11.75
2019-04-26T14:12:18.865Z,15.08
2019-04-26T14:14:43.916Z,13.40
2019-04-26T14:17:13.491Z,11.75
2019-04-26T14:19:45.289Z,10.45
2019-04-26T14:22:18.159Z,9.80
2019-04-26T14:25:02.511Z,11.00
2019-04-26T14:27:39.948Z,9.38
2019-04-26T14:30:09.383Z,9.83
2019-04-26T14:32:39.261Z,9.88
2019-04-26T14:35:11.526Z,11.83
2019-04-26T14:37:41.094Z,13.00
2019-04-26T14:40:17.253Z,11.13
2019-04-26T14:42:47.292Z,10.37
2019-04-26T14:45:24.154Z,10.37
2019-04-26T14:47:53.962Z,10.43
2019-04-26T14:50:24.458Z,9.63
2019-04-26T14:52:54.480Z,11.13
2019-04-26T14:55:24.499Z,14.53
2019-04-26T14:57:55.001Z,12.20
2019-04-26T15:00:29.847Z,16.07
2019-04-26T15:03:05.271Z,12.37
2019-04-26T15:06:05.520Z,9.73
2019-04-26T15:08:35.814Z,11.13
2019-04-26T15:11:06.317Z,11.40
2019-04-26T15:13:40.367Z,9.57
2019-04-26T15:16:10.411Z,10.70
2019-04-26T15:18:40.327Z,12.67
2019-04-26T15:21:13.276Z,12.73
2019-04-26T15:23:43.109Z,12.70
2019-04-26T15:26:13.199Z,10.97
2019-04-26T15:28:43.665Z,11.47
2019-04-26T15:31:17.062Z,10.10
2019-04-26T15:33:48.786Z,11.47
2019-04-26T15:36:17.748Z,9.80
2019-04-26T15:38:50.147Z,9.07
2019-04-26T15:41:37.748Z,16.83
2019-04-26T15:44:20.313Z,10.83
2019-04-26T15:47:06.880Z,11.77
2019-04-26T15:50:09.861Z,15.17
2019-04-26T15:52:36.025Z,10.20
2019-04-26T15:55:06.222Z,12.30
2019-04-26T15:57:38.116Z,9.93
2019-04-26T16:00:07.936Z,10.50
2019-04-26T16:02:38.310Z,10.20
2019-04-26T16:05:08.167Z,14.20
2019-04-26T16:07:39.629Z,12.00
2019-04-26T16:10:09.758Z,13.47
2019-04-26T16:12:39.762Z,12.53
2019-04-26T16:15:11.489Z,16.90
2019-04-26T16:17:41.411Z,13.33
2019-04-26T16:20:11.882Z,15.33
2019-04-26T16:22:43.217Z,13.10
2019-04-26T16:25:13.286Z,14.00
2019-04-26T16:27:43.207Z,11.37
2019-04-26T16:30:32.619Z,21.43
2019-04-26T16:33:09.119Z,13.77
2019-04-26T16:35:52.486Z,12.33
2019-04-26T16:38:33.190Z,13.83
2019-04-26T16:41:03.470Z,14.90
2019-04-26T16:43:40.339Z,14.17
2019-04-26T16:46:06.975Z,15.60
2019-04-26T16:48:38.966Z,13.20
2019-04-26T16:51:09.295Z,11.47
2019-04-26T16:54:07.215Z,11.63
2019-04-26T16:56:59.104Z,12.87
2019-04-26T16:59:33.678Z,12.03
2019-04-26T17:02:04.096Z,11.20
2019-04-26T17:04:36.932Z,14.17
2019-04-26T17:07:10.204Z,11.75
2019-04-26T17:09:57.090Z,13.10
2019-04-26T17:12:17.703Z,14.83
2019-04-26T17:14:52.531Z,15.70
2019-04-26T17:17:23.370Z,15.65
2019-04-26T17:19:53.196Z,15.32
2019-04-26T17:22:44.359Z,14.35
2019-04-26T17:25:23.721Z,13.30
2019-04-26T17:27:48.323Z,14.13
2019-04-26T17:30:26.445Z,14.20
2019-04-26T17:32:56.960Z,15.00
2019-04-26T17:35:28.816Z,13.62
2019-04-26T17:41:17.601Z,15.58
2019-04-26T17:43:56.007Z,15.20
2019-04-26T17:46:27.087Z,14.73
2019-04-26T17:49:00.406Z,14.23
2019-04-26T17:51:32.572Z,16.30
2019-04-26T17:54:26.497Z,14.90
2019-04-26T17:56:45.650Z,13.60
2019-04-26T17:59:33.339Z,14.93
2019-04-26T18:02:00.727Z,15.23
2019-04-26T18:04:34.554Z,15.30
2019-04-26T18:07:03.751Z,13.73
2019-04-26T18:09:41.350Z,11.03
2019-04-26T18:12:03.513Z,11.77
2019-04-26T18:14:33.768Z,15.13
2019-04-26T18:17:23.143Z,13.17
2019-04-26T18:20:06.534Z,11.50
2019-04-26T18:22:43.216Z,10.30
2019-04-26T18:25:19.660Z,12.47
2019-04-26T18:27:50.589Z,12.33
2019-04-26T18:30:21.117Z,13.17
2019-04-26T18:32:55.158Z,11.20
2019-04-26T18:35:25.572Z,12.98
2019-04-26T18:37:56.088Z,13.70
2019-04-26T18:40:35.427Z,12.78
2019-04-26T18:43:03.410Z,11.97
2019-04-26T18:45:35.557Z,10.93
2019-04-26T18:48:05.562Z,13.93
2019-04-26T18:50:36.674Z,13.57
2019-04-26T18:53:40.523Z,12.33
2019-04-26T18:56:12.542Z,13.37
2019-04-26T18:58:43.660Z,11.27
2019-04-26T19:01:15.136Z,12.83
2019-04-26T19:03:44.874Z,12.40
2019-04-26T19:06:27.150Z,13.50
2019-04-26T19:08:50.091Z,12.83
2019-04-26T19:11:19.065Z,12.63
2019-04-26T19:14:13.070Z,13.27
2019-04-26T19:17:08.137Z,12.60
2019-04-26T19:19:55.792Z,14.83
2019-04-26T19:22:26.293Z,13.13
2019-04-26T19:24:57.671Z,13.37
2019-04-26T19:27:28.602Z,13.77
2019-04-26T19:30:04.322Z,13.87
2019-04-26T19:32:35.188Z,14.40
2019-04-26T19:35:07.114Z,14.97
2019-04-26T19:37:37.097Z,14.30
2019-04-26T19:40:09.025Z,14.80
2019-04-26T19:42:38.740Z,15.30
2019-04-26T19:45:18.957Z,16.03
2019-04-26T19:48:07.498Z,16.10
2019-04-26T19:50:48.670Z,15.65
2019-04-26T19:53:54.255Z,16.05
2019-04-26T19:56:46.872Z,16.57
2019-04-26T19:59:16.895Z,15.77
2019-04-26T20:01:49.362Z,15.77
2019-04-26T20:04:24.807Z,14.73
2019-04-26T20:06:55.265Z,16.73
2019-04-26T20:09:27.669Z,17.00
2019-04-26T20:11:59.344Z,17.10
2019-04-26T20:14:39.843Z,16.53
2019-04-26T20:17:01.745Z,16.53
2019-04-26T20:19:37.217Z,18.83
2019-04-26T20:22:06.200Z,16.93
2019-04-26T20:24:37.661Z,17.43
2019-04-26T20:27:07.435Z,18.47
2019-04-26T20:29:40.736Z,18.70
2019-04-26T20:32:24.917Z,18.43
2019-04-26T20:35:19.866Z,17.70
2019-04-26T20:37:47.997Z,17.30
2019-04-26T20:40:22.526Z,17.23
2019-04-26T20:42:51.212Z,19.03
2019-04-26T20:45:22.363Z,17.87
2019-04-26T20:47:55.606Z,19.40
2019-04-26T20:50:28.566Z,17.30
2019-04-26T20:53:01.195Z,18.67
2019-04-26T20:55:34.651Z,17.90
2019-04-26T20:58:08.309Z,18.27
2019-04-26T21:00:37.643Z,17.40
2019-04-26T21:03:21.114Z,18.03
2019-04-26T21:05:58.864Z,19.40
2019-04-26T21:08:31.678Z,20.25
2019-04-26T21:11:08.944Z,19.70
2019-04-26T21:13:47.491Z,19.73
2019-04-26T21:16:34.836Z,19.90
2019-04-26T21:19:08.378Z,19.53
2019-04-26T21:21:42.014Z,20.53
2019-04-26T21:24:19.977Z,20.60
2019-04-26T21:27:11.954Z,19.40
2019-04-26T21:30:01.208Z,20.48
2019-04-26T21:32:47.463Z,19.95
2019-04-26T21:35:24.519Z,19.40
2019-04-26T21:37:59.872Z,18.75
2019-04-26T21:40:33.593Z,18.17
2019-04-26T21:43:03.748Z,18.43
2019-04-26T21:45:34.028Z,18.77
2019-04-26T21:48:06.840Z,18.17
2019-04-26T21:50:39.044Z,17.47
2019-04-26T21:53:08.711Z,18.10
2019-04-26T21:55:38.920Z,17.70
2019-04-26T21:58:14.039Z,19.63
2019-04-26T22:01:06.175Z,19.05
2019-04-26T22:03:38.606Z,18.42
2019-04-26T22:06:08.159Z,17.62
2019-04-26T22:08:41.188Z,16.80
2019-04-26T22:11:13.924Z,15.58
2019-04-26T22:13:51.159Z,16.97
2019-04-26T22:16:37.236Z,17.20
2019-04-26T22:19:27.889Z,17.30
2019-04-26T22:22:15.392Z,16.77
2019-04-26T22:24:46.377Z,19.73
2019-04-26T22:27:25.279Z,17.40
2019-04-26T22:29:55.687Z,17.47
2019-04-26T22:32:25.879Z,17.30
2019-04-26T22:34:56.139Z,17.63
2019-04-26T22:37:29.862Z,17.67
2019-04-26T22:39:58.269Z,18.63
2019-04-26T22:42:36.645Z,16.27
2019-04-26T22:45:21.020Z,17.33
2019-04-26T22:48:19.135Z,18.00
2019-04-26T22:50:45.512Z,16.87
2019-04-26T22:53:15.945Z,17.90
2019-04-26T22:55:45.620Z,18.40
2019-04-26T22:58:15.382Z,18.33
2019-04-26T23:00:48.172Z,18.10
2019-04-26T23:03:19.601Z,15.83
2019-04-26T23:05:49.419Z,15.33
2019-04-26T23:08:19.711Z,16.67
2019-04-26T23:10:52.995Z,16.07
2019-04-26T23:13:51.349Z,16.03
2019-04-26T23:16:40.421Z,17.13
2019-04-26T23:19:19.214Z,16.53
2019-04-26T23:21:55.566Z,15.57
2019-04-26T23:24:23.783Z,15.90
2019-04-26T23:26:54.083Z,16.07
2019-04-26T23:29:23.984Z,16.43
2019-04-26T23:31:55.545Z,15.00
2019-04-26T23:34:25.438Z,15.27
2019-04-26T23:36:55.396Z,15.00
2019-04-26T23:39:25.403Z,16.17
2019-04-26T23:41:55.675Z,18.63
2019-04-26T23:44:25.947Z,18.97
2019-04-26T23:47:01.304Z,15.93
2019-04-26T23:49:27.459Z,16.23
2019-04-26T23:51:57.305Z,15.70
2019-04-26T23:54:28.102Z,16.17
2019-04-26T23:56:59.001Z,16.27
2019-04-26T23:59:31.597Z,16.03
